sensor_id;sensor_type;location;lat;lon;timestamp;P1;durP1;ratioP1;P2;durP2;ratioP2
39982;SDS011;25670;44.782;10.356;2022-12-07T00:01:34;64.10;;;30.88;;
39982;SDS011;25670;44.782;10.356;2022-12-07T00:04:02;55.70;;;27.48;;
39982;SDS011;25670;44.782;10.356;2022-12-07T00:06:30;55.13;;;27.58;;
39982;SDS011;25670;44.782;10.356;2022-12-07T00:09:06;56.50;;;27.10;;
39982;SDS011;25670;44.782;10.356;2022-12-07T00:11:35;53.03;;;25.63;;
39982;SDS011;25670;44.782;10.356;2022-12-07T00:14:02;48.13;;;24.35;;
39982;SDS011;25670;44.782;10.356;2022-12-07T00:16:31;42.63;;;24.30;;
39982;SDS011;25670;44.782;10.356;2022-12-07T00:18:59;47.35;;;24.05;;
39982;SDS011;25670;44.782;10.356;2022-12-07T00:21:27;42.47;;;23.58;;
39982;SDS011;25670;44.782;10.356;2022-12-07T00:23:55;44.15;;;22.17;;
39982;SDS011;25670;44.782;10.356;2022-12-07T00:26:26;38.78;;;22.13;;
39982;SDS011;25670;44.782;10.356;2022-12-07T00:28:54;38.75;;;22.20;;
39982;SDS011;25670;44.782;10.356;2022-12-07T00:31:24;40.13;;;21.80;;
39982;SDS011;25670;44.782;10.356;2022-12-07T00:33:53;37.45;;;20.98;;
39982;SDS011;25670;44.782;10.356;2022-12-07T00:36:21;38.38;;;21.48;;
39982;SDS011;25670;44.782;10.356;2022-12-07T00:38:48;34.35;;;20.85;;
39982;SDS011;25670;44.782;10.356;2022-12-07T00:41:15;36.90;;;20.30;;
39982;SDS011;25670;44.782;10.356;2022-12-07T00:43:44;34.33;;;21.23;;
39982;SDS011;25670;44.782;10.356;2022-12-07T00:46:12;37.10;;;19.75;;
39982;SDS011;25670;44.782;10.356;2022-12-07T00:48:39;40.45;;;19.67;;
39982;SDS011;25670;44.782;10.356;2022-12-07T00:51:06;33.08;;;20.48;;
39982;SDS011;25670;44.782;10.356;2022-12-07T00:53:36;33.25;;;19.73;;
39982;SDS011;25670;44.782;10.356;2022-12-07T00:56:07;39.08;;;19.75;;
39982;SDS011;25670;44.782;10.356;2022-12-07T00:59:00;52.30;;;26.38;;
39982;SDS011;25670;44.782;10.356;2022-12-07T01:01:29;29.08;;;19.55;;
39982;SDS011;25670;44.782;10.356;2022-12-07T01:03:57;34.75;;;20.77;;
39982;SDS011;25670;44.782;10.356;2022-12-07T01:06:24;28.17;;;18.48;;
39982;SDS011;25670;44.782;10.356;2022-12-07T01:08:51;34.28;;;20.20;;
39982;SDS011;25670;44.782;10.356;2022-12-07T01:11:18;37.75;;;21.05;;
39982;SDS011;25670;44.782;10.356;2022-12-07T01:13:46;36.60;;;20.85;;
39982;SDS011;25670;44.782;10.356;2022-12-07T01:16:14;37.78;;;20.85;;
39982;SDS011;25670;44.782;10.356;2022-12-07T01:18:42;37.05;;;21.20;;
39982;SDS011;25670;44.782;10.356;2022-12-07T01:21:12;37.60;;;20.33;;
39982;SDS011;25670;44.782;10.356;2022-12-07T01:23:41;39.80;;;20.08;;
39982;SDS011;25670;44.782;10.356;2022-12-07T01:26:10;28.88;;;18.92;;
39982;SDS011;25670;44.782;10.356;2022-12-07T01:28:41;31.52;;;19.02;;
39982;SDS011;25670;44.782;10.356;2022-12-07T01:31:09;28.85;;;18.67;;
39982;SDS011;25670;44.782;10.356;2022-12-07T01:33:37;35.40;;;20.63;;
39982;SDS011;25670;44.782;10.356;2022-12-07T01:36:05;35.40;;;20.73;;
39982;SDS011;25670;44.782;10.356;2022-12-07T01:38:32;31.27;;;20.33;;
39982;SDS011;25670;44.782;10.356;2022-12-07T01:40:58;35.35;;;19.75;;
39982;SDS011;25670;44.782;10.356;2022-12-07T01:43:27;32.47;;;19.60;;
39982;SDS011;25670;44.782;10.356;2022-12-07T01:45:55;30.15;;;18.65;;
39982;SDS011;25670;44.782;10.356;2022-12-07T01:48:24;28.60;;;17.90;;
39982;SDS011;25670;44.782;10.356;2022-12-07T01:50:53;35.22;;;18.73;;
39982;SDS011;25670;44.782;10.356;2022-12-07T01:53:21;34.25;;;20.85;;
39982;SDS011;25670;44.782;10.356;2022-12-07T01:55:51;35.85;;;20.38;;
39982;SDS011;25670;44.782;10.356;2022-12-07T01:58:19;34.03;;;20.13;;
39982;SDS011;25670;44.782;10.356;2022-12-07T02:00:46;33.03;;;19.60;;
39982;SDS011;25670;44.782;10.356;2022-12-07T02:03:24;35.85;;;19.63;;
39982;SDS011;25670;44.782;10.356;2022-12-07T02:06:04;30.13;;;19.38;;
39982;SDS011;25670;44.782;10.356;2022-12-07T02:08:32;33.92;;;20.17;;
39982;SDS011;25670;44.782;10.356;2022-12-07T02:10:59;33.88;;;21.02;;
39982;SDS011;25670;44.782;10.356;2022-12-07T02:13:30;33.08;;;19.23;;
39982;SDS011;25670;44.782;10.356;2022-12-07T02:21:54;43.58;;;23.50;;
39982;SDS011;25670;44.782;10.356;2022-12-07T02:35:33;47.97;;;25.48;;
39982;SDS011;25670;44.782;10.356;2022-12-07T02:40:40;56.25;;;28.45;;
39982;SDS011;25670;44.782;10.356;2022-12-07T02:43:23;53.08;;;29.23;;
39982;SDS011;25670;44.782;10.356;2022-12-07T02:45:54;60.08;;;28.48;;
39982;SDS011;25670;44.782;10.356;2022-12-07T02:48:28;54.45;;;26.75;;
39982;SDS011;25670;44.782;10.356;2022-12-07T02:50:57;55.40;;;26.85;;
39982;SDS011;25670;44.782;10.356;2022-12-07T02:53:33;43.90;;;25.88;;
39982;SDS011;25670;44.782;10.356;2022-12-07T02:56:03;49.38;;;25.83;;
39982;SDS011;25670;44.782;10.356;2022-12-07T03:06:42;45.65;;;25.05;;
39982;SDS011;25670;44.782;10.356;2022-12-07T03:09:20;50.70;;;27.20;;
39982;SDS011;25670;44.782;10.356;2022-12-07T03:12:28;45.85;;;25.77;;
39982;SDS011;25670;44.782;10.356;2022-12-07T03:15:06;49.33;;;26.73;;
39982;SDS011;25670;44.782;10.356;2022-12-07T03:17:39;47.90;;;25.90;;
39982;SDS011;25670;44.782;10.356;2022-12-07T03:20:09;49.72;;;27.15;;
39982;SDS011;25670;44.782;10.356;2022-12-07T03:22:41;49.90;;;27.63;;
39982;SDS011;25670;44.782;10.356;2022-12-07T03:25:11;54.78;;;28.45;;
39982;SDS011;25670;44.782;10.356;2022-12-07T03:27:42;59.63;;;30.60;;
39982;SDS011;25670;44.782;10.356;2022-12-07T03:30:22;66.10;;;30.42;;
39982;SDS011;25670;44.782;10.356;2022-12-07T03:37:59;60.13;;;29.25;;
39982;SDS011;25670;44.782;10.356;2022-12-07T03:40:35;63.45;;;30.55;;
39982;SDS011;25670;44.782;10.356;2022-12-07T03:43:07;58.40;;;30.70;;
39982;SDS011;25670;44.782;10.356;2022-12-07T03:45:38;62.83;;;30.10;;
39982;SDS011;25670;44.782;10.356;2022-12-07T03:53:45;59.28;;;31.77;;
39982;SDS011;25670;44.782;10.356;2022-12-07T03:56:17;67.22;;;33.92;;
39982;SDS011;25670;44.782;10.356;2022-12-07T03:58:43;66.38;;;35.10;;
39982;SDS011;25670;44.782;10.356;2022-12-07T04:01:09;65.10;;;34.10;;
39982;SDS011;25670;44.782;10.356;2022-12-07T04:03:36;66.28;;;34.08;;
39982;SDS011;25670;44.782;10.356;2022-12-07T04:06:02;63.75;;;33.30;;
39982;SDS011;25670;44.782;10.356;2022-12-07T04:08:29;61.10;;;32.28;;
39982;SDS011;25670;44.782;10.356;2022-12-07T04:10:55;69.43;;;32.92;;
39982;SDS011;25670;44.782;10.356;2022-12-07T04:13:22;65.43;;;31.98;;
39982;SDS011;25670;44.782;10.356;2022-12-07T04:15:48;63.50;;;31.27;;
39982;SDS011;25670;44.782;10.356;2022-12-07T04:18:14;60.95;;;29.70;;
39982;SDS011;25670;44.782;10.356;2022-12-07T04:20:41;64.93;;;31.77;;
39982;SDS011;25670;44.782;10.356;2022-12-07T04:23:07;63.25;;;31.67;;
39982;SDS011;25670;44.782;10.356;2022-12-07T04:25:34;57.05;;;30.02;;
39982;SDS011;25670;44.782;10.356;2022-12-07T04:28:00;58.08;;;30.25;;
39982;SDS011;25670;44.782;10.356;2022-12-07T04:30:27;63.70;;;29.92;;
39982;SDS011;25670;44.782;10.356;2022-12-07T04:32:53;67.38;;;32.08;;
39982;SDS011;25670;44.782;10.356;2022-12-07T04:35:20;63.47;;;31.73;;
39982;SDS011;25670;44.782;10.356;2022-12-07T04:37:46;64.90;;;32.22;;
39982;SDS011;25670;44.782;10.356;2022-12-07T04:40:12;58.65;;;31.75;;
39982;SDS011;25670;44.782;10.356;2022-12-07T04:42:39;58.95;;;31.92;;
39982;SDS011;25670;44.782;10.356;2022-12-07T04:45:06;63.65;;;32.03;;
39982;SDS011;25670;44.782;10.356;2022-12-07T04:47:33;62.65;;;32.42;;
39982;SDS011;25670;44.782;10.356;2022-12-07T04:49:59;55.90;;;29.42;;
39982;SDS011;25670;44.782;10.356;2022-12-07T04:52:26;59.22;;;30.13;;
39982;SDS011;25670;44.782;10.356;2022-12-07T04:54:52;55.80;;;29.27;;
39982;SDS011;25670;44.782;10.356;2022-12-07T04:57:18;52.00;;;28.83;;
39982;SDS011;25670;44.782;10.356;2022-12-07T04:59:45;58.45;;;29.83;;
39982;SDS011;25670;44.782;10.356;2022-12-07T05:02:11;54.35;;;30.27;;
39982;SDS011;25670;44.782;10.356;2022-12-07T05:04:38;57.55;;;29.08;;
39982;SDS011;25670;44.782;10.356;2022-12-07T05:07:04;56.92;;;28.35;;
39982;SDS011;25670;44.782;10.356;2022-12-07T05:09:31;57.95;;;29.52;;
39982;SDS011;25670;44.782;10.356;2022-12-07T05:11:57;57.60;;;30.52;;
39982;SDS011;25670;44.782;10.356;2022-12-07T05:14:24;64.10;;;30.98;;
39982;SDS011;25670;44.782;10.356;2022-12-07T05:16:50;52.58;;;29.13;;
39982;SDS011;25670;44.782;10.356;2022-12-07T05:19:17;54.08;;;28.70;;
39982;SDS011;25670;44.782;10.356;2022-12-07T05:21:44;51.20;;;27.98;;
39982;SDS011;25670;44.782;10.356;2022-12-07T05:24:11;52.88;;;26.80;;
39982;SDS011;25670;44.782;10.356;2022-12-07T05:26:39;52.38;;;26.27;;
39982;SDS011;25670;44.782;10.356;2022-12-07T05:29:05;48.17;;;26.33;;
39982;SDS011;25670;44.782;10.356;2022-12-07T05:31:32;44.17;;;25.90;;
39982;SDS011;25670;44.782;10.356;2022-12-07T05:33:58;49.20;;;26.85;;
39982;SDS011;25670;44.782;10.356;2022-12-07T05:36:24;45.67;;;27.20;;
39982;SDS011;25670;44.782;10.356;2022-12-07T05:38:54;51.45;;;26.85;;
39982;SDS011;25670;44.782;10.356;2022-12-07T05:41:20;43.83;;;25.85;;
39982;SDS011;25670;44.782;10.356;2022-12-07T05:44:05;50.35;;;26.88;;
39982;SDS011;25670;44.782;10.356;2022-12-07T05:46:32;51.20;;;27.30;;
39982;SDS011;25670;44.782;10.356;2022-12-07T05:48:58;46.20;;;24.67;;
39982;SDS011;25670;44.782;10.356;2022-12-07T05:51:24;48.38;;;25.52;;
39982;SDS011;25670;44.782;10.356;2022-12-07T05:53:51;47.42;;;26.58;;
39982;SDS011;25670;44.782;10.356;2022-12-07T05:56:17;42.25;;;24.92;;
39982;SDS011;25670;44.782;10.356;2022-12-07T05:58:44;53.15;;;26.83;;
39982;SDS011;25670;44.782;10.356;2022-12-07T06:01:29;43.50;;;24.15;;
39982;SDS011;25670;44.782;10.356;2022-12-07T06:03:56;51.13;;;27.23;;
39982;SDS011;25670;44.782;10.356;2022-12-07T06:06:22;53.60;;;27.80;;
39982;SDS011;25670;44.782;10.356;2022-12-07T06:08:48;46.08;;;25.67;;
39982;SDS011;25670;44.782;10.356;2022-12-07T06:11:14;47.47;;;24.60;;
39982;SDS011;25670;44.782;10.356;2022-12-07T06:14:00;48.13;;;25.38;;
39982;SDS011;25670;44.782;10.356;2022-12-07T06:16:26;54.70;;;25.02;;
39982;SDS011;25670;44.782;10.356;2022-12-07T06:18:53;51.42;;;26.38;;
39982;SDS011;25670;44.782;10.356;2022-12-07T06:21:19;46.45;;;25.70;;
39982;SDS011;25670;44.782;10.356;2022-12-07T06:23:45;47.97;;;26.77;;
39982;SDS011;25670;44.782;10.356;2022-12-07T06:26:13;51.65;;;27.90;;
39982;SDS011;25670;44.782;10.356;2022-12-07T06:28:40;52.40;;;26.58;;
39982;SDS011;25670;44.782;10.356;2022-12-07T06:31:07;48.08;;;26.17;;
39982;SDS011;25670;44.782;10.356;2022-12-07T06:33:33;50.55;;;27.05;;
39982;SDS011;25670;44.782;10.356;2022-12-07T06:36:00;51.63;;;25.30;;
39982;SDS011;25670;44.782;10.356;2022-12-07T06:38:26;52.15;;;25.98;;
39982;SDS011;25670;44.782;10.356;2022-12-07T06:40:52;49.75;;;26.20;;
39982;SDS011;25670;44.782;10.356;2022-12-07T06:43:18;58.97;;;27.20;;
39982;SDS011;25670;44.782;10.356;2022-12-07T06:45:45;57.53;;;26.15;;
39982;SDS011;25670;44.782;10.356;2022-12-07T06:48:11;52.35;;;26.08;;
39982;SDS011;25670;44.782;10.356;2022-12-07T06:50:37;46.03;;;26.20;;
39982;SDS011;25670;44.782;10.356;2022-12-07T06:53:04;53.00;;;26.25;;
39982;SDS011;25670;44.782;10.356;2022-12-07T06:55:30;54.95;;;25.95;;
39982;SDS011;25670;44.782;10.356;2022-12-07T06:57:57;48.05;;;25.83;;
39982;SDS011;25670;44.782;10.356;2022-12-07T07:00:23;51.33;;;26.13;;
39982;SDS011;25670;44.782;10.356;2022-12-07T07:02:50;52.25;;;26.55;;
39982;SDS011;25670;44.782;10.356;2022-12-07T07:05:16;58.65;;;26.15;;
39982;SDS011;25670;44.782;10.356;2022-12-07T07:07:43;45.38;;;26.52;;
39982;SDS011;25670;44.782;10.356;2022-12-07T07:10:09;46.88;;;24.70;;
39982;SDS011;25670;44.782;10.356;2022-12-07T07:12:36;45.28;;;24.52;;
39982;SDS011;25670;44.782;10.356;2022-12-07T07:15:02;44.83;;;24.73;;
39982;SDS011;25670;44.782;10.356;2022-12-07T07:17:29;45.22;;;23.20;;
39982;SDS011;25670;44.782;10.356;2022-12-07T07:19:55;38.55;;;21.83;;
39982;SDS011;25670;44.782;10.356;2022-12-07T07:22:22;42.92;;;21.13;;
39982;SDS011;25670;44.782;10.356;2022-12-07T07:24:48;42.67;;;21.95;;
39982;SDS011;25670;44.782;10.356;2022-12-07T07:27:15;36.15;;;21.60;;
39982;SDS011;25670;44.782;10.356;2022-12-07T07:29:41;35.45;;;21.65;;
39982;SDS011;25670;44.782;10.356;2022-12-07T07:32:07;34.72;;;19.38;;
39982;SDS011;25670;44.782;10.356;2022-12-07T07:34:34;35.10;;;19.75;;
39982;SDS011;25670;44.782;10.356;2022-12-07T07:37:00;32.90;;;20.30;;
39982;SDS011;25670;44.782;10.356;2022-12-07T07:39:27;35.15;;;20.48;;
39982;SDS011;25670;44.782;10.356;2022-12-07T07:41:53;35.15;;;20.90;;
39982;SDS011;25670;44.782;10.356;2022-12-07T07:44:24;32.40;;;19.42;;
39982;SDS011;25670;44.782;10.356;2022-12-07T07:46:51;34.10;;;18.20;;
39982;SDS011;25670;44.782;10.356;2022-12-07T07:49:17;31.65;;;19.80;;
39982;SDS011;25670;44.782;10.356;2022-12-07T07:51:43;35.22;;;20.42;;
39982;SDS011;25670;44.782;10.356;2022-12-07T07:54:10;34.30;;;18.55;;
39982;SDS011;25670;44.782;10.356;2022-12-07T07:56:36;30.55;;;19.38;;
39982;SDS011;25670;44.782;10.356;2022-12-07T07:59:02;36.55;;;19.20;;
39982;SDS011;25670;44.782;10.356;2022-12-07T08:01:28;31.67;;;19.10;;
39982;SDS011;25670;44.782;10.356;2022-12-07T08:03:55;27.90;;;17.60;;
39982;SDS011;25670;44.782;10.356;2022-12-07T08:06:21;32.03;;;18.73;;
39982;SDS011;25670;44.782;10.356;2022-12-07T08:08:47;34.38;;;19.45;;
39982;SDS011;25670;44.782;10.356;2022-12-07T08:11:14;27.63;;;17.67;;
39982;SDS011;25670;44.782;10.356;2022-12-07T08:13:40;37.83;;;18.85;;
39982;SDS011;25670;44.782;10.356;2022-12-07T08:16:08;32.97;;;18.55;;
39982;SDS011;25670;44.782;10.356;2022-12-07T08:18:36;33.65;;;19.05;;
39982;SDS011;25670;44.782;10.356;2022-12-07T08:21:06;33.00;;;19.08;;
39982;SDS011;25670;44.782;10.356;2022-12-07T08:23:34;28.80;;;19.20;;
39982;SDS011;25670;44.782;10.356;2022-12-07T08:26:01;26.02;;;18.35;;
39982;SDS011;25670;44.782;10.356;2022-12-07T08:28:29;33.80;;;19.15;;
39982;SDS011;25670;44.782;10.356;2022-12-07T08:31:02;29.75;;;18.52;;
39982;SDS011;25670;44.782;10.356;2022-12-07T08:33:30;24.13;;;16.52;;
39982;SDS011;25670;44.782;10.356;2022-12-07T08:36:00;28.40;;;17.98;;
39982;SDS011;25670;44.782;10.356;2022-12-07T08:38:30;30.40;;;17.23;;
39982;SDS011;25670;44.782;10.356;2022-12-07T08:40:57;39.45;;;19.13;;
39982;SDS011;25670;44.782;10.356;2022-12-07T08:43:24;27.98;;;18.08;;
39982;SDS011;25670;44.782;10.356;2022-12-07T08:45:53;30.05;;;19.05;;
39982;SDS011;25670;44.782;10.356;2022-12-07T08:48:22;33.65;;;17.63;;
39982;SDS011;25670;44.782;10.356;2022-12-07T08:50:50;25.10;;;17.00;;
39982;SDS011;25670;44.782;10.356;2022-12-07T08:53:17;27.65;;;17.15;;
39982;SDS011;25670;44.782;10.356;2022-12-07T08:55:44;33.70;;;17.98;;
39982;SDS011;25670;44.782;10.356;2022-12-07T08:58:12;27.60;;;17.23;;
39982;SDS011;25670;44.782;10.356;2022-12-07T09:00:38;22.77;;;16.75;;
39982;SDS011;25670;44.782;10.356;2022-12-07T09:03:04;37.50;;;20.17;;
39982;SDS011;25670;44.782;10.356;2022-12-07T09:05:32;35.00;;;19.90;;
39982;SDS011;25670;44.782;10.356;2022-12-07T09:08:00;32.63;;;19.30;;
39982;SDS011;25670;44.782;10.356;2022-12-07T09:10:27;22.85;;;17.30;;
39982;SDS011;25670;44.782;10.356;2022-12-07T09:12:54;26.48;;;17.08;;
39982;SDS011;25670;44.782;10.356;2022-12-07T09:15:21;35.92;;;18.52;;
39982;SDS011;25670;44.782;10.356;2022-12-07T09:17:47;27.38;;;16.88;;
39982;SDS011;25670;44.782;10.356;2022-12-07T09:20:13;28.85;;;18.15;;
39982;SDS011;25670;44.782;10.356;2022-12-07T09:22:40;28.52;;;18.88;;
39982;SDS011;25670;44.782;10.356;2022-12-07T09:25:06;34.90;;;20.05;;
39982;SDS011;25670;44.782;10.356;2022-12-07T09:27:33;29.60;;;19.25;;
39982;SDS011;25670;44.782;10.356;2022-12-07T09:29:59;33.95;;;20.27;;
39982;SDS011;25670;44.782;10.356;2022-12-07T09:32:25;32.67;;;20.38;;
39982;SDS011;25670;44.782;10.356;2022-12-07T09:34:52;32.70;;;20.38;;
39982;SDS011;25670;44.782;10.356;2022-12-07T09:37:18;35.65;;;20.02;;
39982;SDS011;25670;44.782;10.356;2022-12-07T09:39:44;29.67;;;19.55;;
39982;SDS011;25670;44.782;10.356;2022-12-07T09:42:11;32.85;;;20.33;;
39982;SDS011;25670;44.782;10.356;2022-12-07T09:44:51;33.83;;;20.57;;
39982;SDS011;25670;44.782;10.356;2022-12-07T09:47:21;33.22;;;19.10;;
39982;SDS011;25670;44.782;10.356;2022-12-07T09:49:48;35.42;;;19.90;;
39982;SDS011;25670;44.782;10.356;2022-12-07T09:52:20;44.53;;;21.35;;
39982;SDS011;25670;44.782;10.356;2022-12-07T09:54:52;35.05;;;21.35;;
39982;SDS011;25670;44.782;10.356;2022-12-07T09:57:29;41.72;;;22.65;;
39982;SDS011;25670;44.782;10.356;2022-12-07T09:59:59;33.33;;;20.40;;
39982;SDS011;25670;44.782;10.356;2022-12-07T10:02:38;31.90;;;20.65;;
39982;SDS011;25670;44.782;10.356;2022-12-07T10:05:10;29.55;;;20.20;;
39982;SDS011;25670;44.782;10.356;2022-12-07T10:07:44;35.67;;;20.63;;
39982;SDS011;25670;44.782;10.356;2022-12-07T10:10:14;33.80;;;20.52;;
39982;SDS011;25670;44.782;10.356;2022-12-07T10:12:55;32.90;;;21.42;;
39982;SDS011;25670;44.782;10.356;2022-12-07T10:15:36;32.17;;;19.95;;
39982;SDS011;25670;44.782;10.356;2022-12-07T10:18:17;30.02;;;20.30;;
39982;SDS011;25670;44.782;10.356;2022-12-07T10:20:47;34.75;;;21.77;;
39982;SDS011;25670;44.782;10.356;2022-12-07T10:23:14;30.17;;;20.17;;
39982;SDS011;25670;44.782;10.356;2022-12-07T10:25:42;29.10;;;19.65;;
39982;SDS011;25670;44.782;10.356;2022-12-07T10:28:15;29.70;;;19.30;;
39982;SDS011;25670;44.782;10.356;2022-12-07T10:31:02;29.63;;;19.27;;
39982;SDS011;25670;44.782;10.356;2022-12-07T10:33:52;32.88;;;19.38;;
39982;SDS011;25670;44.782;10.356;2022-12-07T10:39:00;30.85;;;19.23;;
39982;SDS011;25670;44.782;10.356;2022-12-07T10:41:29;30.73;;;19.08;;
39982;SDS011;25670;44.782;10.356;2022-12-07T10:43:56;26.60;;;18.08;;
39982;SDS011;25670;44.782;10.356;2022-12-07T10:46:46;25.60;;;17.77;;
39982;SDS011;25670;44.782;10.356;2022-12-07T10:52:00;29.27;;;17.70;;
39982;SDS011;25670;44.782;10.356;2022-12-07T10:57:16;25.08;;;17.40;;
39982;SDS011;25670;44.782;10.356;2022-12-07T11:03:20;28.58;;;18.60;;
39982;SDS011;25670;44.782;10.356;2022-12-07T11:08:39;23.95;;;17.25;;
39982;SDS011;25670;44.782;10.356;2022-12-07T11:17:20;24.48;;;16.58;;
39982;SDS011;25670;44.782;10.356;2022-12-07T11:27:55;27.13;;;18.83;;
39982;SDS011;25670;44.782;10.356;2022-12-07T11:30:31;28.45;;;18.45;;
39982;SDS011;25670;44.782;10.356;2022-12-07T11:38:53;31.38;;;19.08;;
39982;SDS011;25670;44.782;10.356;2022-12-07T11:41:28;33.20;;;19.67;;
39982;SDS011;25670;44.782;10.356;2022-12-07T11:44:00;35.38;;;21.95;;
39982;SDS011;25670;44.782;10.356;2022-12-07T11:47:10;37.50;;;21.83;;
39982;SDS011;25670;44.782;10.356;2022-12-07T11:52:22;41.63;;;23.35;;
39982;SDS011;25670;44.782;10.356;2022-12-07T11:54:56;35.45;;;22.63;;
39982;SDS011;25670;44.782;10.356;2022-12-07T11:57:28;38.45;;;21.95;;
39982;SDS011;25670;44.782;10.356;2022-12-07T12:00:05;38.28;;;22.73;;
39982;SDS011;25670;44.782;10.356;2022-12-07T12:02:46;39.70;;;22.38;;
39982;SDS011;25670;44.782;10.356;2022-12-07T12:05:26;38.85;;;22.95;;
39982;SDS011;25670;44.782;10.356;2022-12-07T12:08:04;41.28;;;23.75;;
39982;SDS011;25670;44.782;10.356;2022-12-07T12:13:34;36.92;;;23.23;;
39982;SDS011;25670;44.782;10.356;2022-12-07T12:19:02;42.30;;;23.63;;
39982;SDS011;25670;44.782;10.356;2022-12-07T12:21:45;46.28;;;26.35;;
39982;SDS011;25670;44.782;10.356;2022-12-07T12:24:22;37.85;;;23.98;;
39982;SDS011;25670;44.782;10.356;2022-12-07T12:26:53;47.88;;;26.23;;
39982;SDS011;25670;44.782;10.356;2022-12-07T12:29:37;45.22;;;26.50;;
39982;SDS011;25670;44.782;10.356;2022-12-07T12:32:52;46.10;;;26.27;;
39982;SDS011;25670;44.782;10.356;2022-12-07T12:37:45;46.97;;;24.90;;
39982;SDS011;25670;44.782;10.356;2022-12-07T12:42:45;51.88;;;25.92;;
39982;SDS011;25670;44.782;10.356;2022-12-07T12:47:56;46.60;;;25.77;;
39982;SDS011;25670;44.782;10.356;2022-12-07T12:54:10;39.00;;;22.77;;
39982;SDS011;25670;44.782;10.356;2022-12-07T13:02:22;47.72;;;26.67;;
39982;SDS011;25670;44.782;10.356;2022-12-07T13:04:51;49.00;;;26.23;;
39982;SDS011;25670;44.782;10.356;2022-12-07T13:13:34;46.53;;;25.25;;
39982;SDS011;25670;44.782;10.356;2022-12-07T13:15:52;43.30;;;24.65;;
39982;SDS011;25670;44.782;10.356;2022-12-07T13:26:17;46.75;;;25.17;;
39982;SDS011;25670;44.782;10.356;2022-12-07T13:31:41;45.63;;;25.20;;
39982;SDS011;25670;44.782;10.356;2022-12-07T13:34:27;45.75;;;25.88;;
39982;SDS011;25670;44.782;10.356;2022-12-07T13:36:57;38.65;;;23.38;;
39982;SDS011;25670;44.782;10.356;2022-12-07T13:39:28;35.90;;;22.85;;
39982;SDS011;25670;44.782;10.356;2022-12-07T13:41:55;41.28;;;24.90;;
39982;SDS011;25670;44.782;10.356;2022-12-07T13:44:26;45.08;;;24.17;;
39982;SDS011;25670;44.782;10.356;2022-12-07T13:47:12;45.88;;;24.63;;
39982;SDS011;25670;44.782;10.356;2022-12-07T13:49:49;52.03;;;25.67;;
39982;SDS011;25670;44.782;10.356;2022-12-07T13:54:47;48.22;;;27.25;;
39982;SDS011;25670;44.782;10.356;2022-12-07T13:57:27;51.47;;;25.95;;
39982;SDS011;25670;44.782;10.356;2022-12-07T14:00:00;53.08;;;27.90;;
39982;SDS011;25670;44.782;10.356;2022-12-07T14:02:32;62.47;;;28.23;;
39982;SDS011;25670;44.782;10.356;2022-12-07T14:05:08;65.75;;;29.85;;
39982;SDS011;25670;44.782;10.356;2022-12-07T14:10:32;71.47;;;31.33;;
39982;SDS011;25670;44.782;10.356;2022-12-07T14:13:01;67.28;;;30.30;;
39982;SDS011;25670;44.782;10.356;2022-12-07T14:15:29;65.30;;;31.10;;
39982;SDS011;25670;44.782;10.356;2022-12-07T14:17:59;65.78;;;30.83;;
39982;SDS011;25670;44.782;10.356;2022-12-07T14:20:39;66.22;;;30.98;;
39982;SDS011;25670;44.782;10.356;2022-12-07T14:23:21;66.15;;;29.67;;
39982;SDS011;25670;44.782;10.356;2022-12-07T14:25:52;70.45;;;32.47;;
39982;SDS011;25670;44.782;10.356;2022-12-07T14:28:26;68.25;;;30.15;;
39982;SDS011;25670;44.782;10.356;2022-12-07T14:30:57;71.75;;;33.38;;
39982;SDS011;25670;44.782;10.356;2022-12-07T14:33:24;65.68;;;30.10;;
39982;SDS011;25670;44.782;10.356;2022-12-07T14:35:51;59.83;;;30.02;;
39982;SDS011;25670;44.782;10.356;2022-12-07T14:38:21;65.40;;;30.55;;
39982;SDS011;25670;44.782;10.356;2022-12-07T14:40:48;81.20;;;32.50;;
39982;SDS011;25670;44.782;10.356;2022-12-07T14:43:16;71.72;;;30.33;;
39982;SDS011;25670;44.782;10.356;2022-12-07T14:45:42;62.80;;;29.38;;
39982;SDS011;25670;44.782;10.356;2022-12-07T14:48:12;69.43;;;31.92;;
39982;SDS011;25670;44.782;10.356;2022-12-07T14:50:41;64.40;;;30.55;;
39982;SDS011;25670;44.782;10.356;2022-12-07T14:53:12;60.72;;;30.95;;
39982;SDS011;25670;44.782;10.356;2022-12-07T14:55:41;59.72;;;29.88;;
39982;SDS011;25670;44.782;10.356;2022-12-07T14:58:14;53.10;;;25.23;;
39982;SDS011;25670;44.782;10.356;2022-12-07T15:00:41;54.47;;;27.70;;
39982;SDS011;25670;44.782;10.356;2022-12-07T15:03:08;56.58;;;27.58;;
39982;SDS011;25670;44.782;10.356;2022-12-07T15:05:35;59.80;;;27.60;;
39982;SDS011;25670;44.782;10.356;2022-12-07T15:08:02;58.97;;;29.20;;
39982;SDS011;25670;44.782;10.356;2022-12-07T15:10:30;65.75;;;28.08;;
39982;SDS011;25670;44.782;10.356;2022-12-07T15:12:58;69.82;;;31.05;;
39982;SDS011;25670;44.782;10.356;2022-12-07T15:15:46;69.10;;;31.20;;
39982;SDS011;25670;44.782;10.356;2022-12-07T15:18:14;70.13;;;30.23;;
39982;SDS011;25670;44.782;10.356;2022-12-07T15:20:41;64.70;;;30.60;;
39982;SDS011;25670;44.782;10.356;2022-12-07T15:23:07;75.50;;;32.92;;
39982;SDS011;25670;44.782;10.356;2022-12-07T15:25:33;74.10;;;32.17;;
39982;SDS011;25670;44.782;10.356;2022-12-07T15:28:00;68.68;;;31.33;;
39982;SDS011;25670;44.782;10.356;2022-12-07T15:30:26;67.97;;;31.05;;
39982;SDS011;25670;44.782;10.356;2022-12-07T15:32:52;83.57;;;36.97;;
39982;SDS011;25670;44.782;10.356;2022-12-07T15:35:20;72.35;;;32.65;;
39982;SDS011;25670;44.782;10.356;2022-12-07T15:37:49;73.13;;;31.23;;
39982;SDS011;25670;44.782;10.356;2022-12-07T15:40:15;77.85;;;32.47;;
39982;SDS011;25670;44.782;10.356;2022-12-07T15:42:42;73.22;;;32.33;;
39982;SDS011;25670;44.782;10.356;2022-12-07T15:45:08;75.90;;;32.53;;
39982;SDS011;25670;44.782;10.356;2022-12-07T15:47:38;77.60;;;32.53;;
39982;SDS011;25670;44.782;10.356;2022-12-07T15:50:07;81.57;;;35.97;;
39982;SDS011;25670;44.782;10.356;2022-12-07T15:52:35;81.22;;;35.70;;
39982;SDS011;25670;44.782;10.356;2022-12-07T15:55:02;85.00;;;36.65;;
39982;SDS011;25670;44.782;10.356;2022-12-07T15:57:32;87.15;;;35.83;;
39982;SDS011;25670;44.782;10.356;2022-12-07T16:00:00;91.32;;;35.92;;
39982;SDS011;25670;44.782;10.356;2022-12-07T16:02:29;79.57;;;31.85;;
39982;SDS011;25670;44.782;10.356;2022-12-07T16:04:56;96.30;;;37.95;;
39982;SDS011;25670;44.782;10.356;2022-12-07T16:07:22;88.70;;;37.40;;
39982;SDS011;25670;44.782;10.356;2022-12-07T16:09:49;92.50;;;38.10;;
39982;SDS011;25670;44.782;10.356;2022-12-07T16:12:15;89.53;;;36.10;;
39982;SDS011;25670;44.782;10.356;2022-12-07T16:14:42;82.35;;;35.85;;
39982;SDS011;25670;44.782;10.356;2022-12-07T16:17:08;97.22;;;38.75;;
39982;SDS011;25670;44.782;10.356;2022-12-07T16:19:35;101.05;;;41.03;;
39982;SDS011;25670;44.782;10.356;2022-12-07T16:22:03;97.03;;;39.90;;
39982;SDS011;25670;44.782;10.356;2022-12-07T16:24:30;94.20;;;39.30;;